sensor_id;sensor_type;location;lat;lon;timestamp;pressure;altitude;pressure_sealevel;temperature;humidity
19761;BME280;10039;42.632;23.408;2023-07-02T00:01:40;94355.03;;;20.97;65.39
19761;BME280;10039;42.632;23.408;2023-07-02T00:04:05;94363.19;;;21.02;65.06
19761;BME280;10039;42.632;23.408;2023-07-02T00:06:34;94362.19;;;21.05;64.87
19761;BME280;10039;42.632;23.408;2023-07-02T00:09:08;94355.03;;;21.08;64.94
19761;BME280;10039;42.632;23.408;2023-07-02T00:11:35;94328.38;;;20.90;65.45
19761;BME280;10039;42.632;23.408;2023-07-02T00:14:00;94351.84;;;21.09;65.44
19761;BME280;10039;42.632;23.408;2023-07-02T00:16:26;94345.91;;;20.94;65.13
19761;BME280;10039;42.632;23.408;2023-07-02T00:18:51;94349.38;;;21.00;65.83
19761;BME280;10039;42.632;23.408;2023-07-02T00:21:20;94347.88;;;20.99;65.59
19761;BME280;10039;42.632;23.408;2023-07-02T00:23:47;94326.66;;;20.92;65.61
19761;BME280;10039;42.632;23.408;2023-07-02T00:26:12;94322.97;;;20.90;65.29
19761;BME280;10039;42.632;23.408;2023-07-02T00:28:38;94338.03;;;21.02;65.75
19761;BME280;10039;42.632;23.408;2023-07-02T00:31:04;94343.94;;;21.00;65.17
19761;BME280;10039;42.632;23.408;2023-07-02T00:33:31;94304.44;;;20.77;65.47
19761;BME280;10039;42.632;23.408;2023-07-02T00:39:07;94344.41;;;20.93;65.27
19761;BME280;10039;42.632;23.408;2023-07-02T00:41:32;94354.53;;;20.98;65.42
19761;BME280;10039;42.632;23.408;2023-07-02T00:43:57;94347.63;;;20.86;65.16
19761;BME280;10039;42.632;23.408;2023-07-02T00:46:24;94334.53;;;20.79;65.40
19761;BME280;10039;42.632;23.408;2023-07-02T00:48:54;94349.59;;;20.86;65.69
19761;BME280;10039;42.632;23.408;2023-07-02T00:53:47;94349.59;;;20.80;65.43
19761;BME280;10039;42.632;23.408;2023-07-02T00:56:14;94364.41;;;20.85;65.38
19761;BME280;10039;42.632;23.408;2023-07-02T00:58:42;94364.41;;;20.85;65.51
19761;BME280;10039;42.632;23.408;2023-07-02T01:01:21;94362.91;;;20.84;65.11
19761;BME280;10039;42.632;23.408;2023-07-02T01:03:59;94364.41;;;20.85;64.95
19761;BME280;10039;42.632;23.408;2023-07-02T01:06:27;94373.03;;;20.83;65.22
19761;BME280;10039;42.632;23.408;2023-07-02T01:08:55;94362.19;;;20.83;65.15
19761;BME280;10039;42.632;23.408;2023-07-02T01:11:24;94359.66;;;20.74;65.36
19761;BME280;10039;42.632;23.408;2023-07-02T01:13:53;94357.44;;;20.73;65.97
19761;BME280;10039;42.632;23.408;2023-07-02T01:16:21;94352.50;;;20.71;65.23
19761;BME280;10039;42.632;23.408;2023-07-02T01:18:49;94370.78;;;20.76;65.82
19761;BME280;10039;42.632;23.408;2023-07-02T01:21:16;94372.50;;;20.79;65.55
19761;BME280;10039;42.632;23.408;2023-07-02T01:23:42;94350.00;;;20.51;65.33
19761;BME280;10039;42.632;23.408;2023-07-02T01:26:08;94390.69;;;20.62;65.92
19761;BME280;10039;42.632;23.408;2023-07-02T01:28:37;94376.88;;;20.60;66.02
19761;BME280;10039;42.632;23.408;2023-07-02T01:31:04;94383.31;;;20.63;65.87
19761;BME280;10039;42.632;23.408;2023-07-02T01:33:31;94377.66;;;20.66;66.08
19761;BME280;10039;42.632;23.408;2023-07-02T01:35:56;94390.69;;;20.57;66.46
19761;BME280;10039;42.632;23.408;2023-07-02T01:38:22;94350.19;;;20.32;66.18
19761;BME280;10039;42.632;23.408;2023-07-02T01:40:47;94371.97;;;20.64;66.50
19761;BME280;10039;42.632;23.408;2023-07-02T01:43:13;94324.34;;;20.36;67.47
19761;BME280;10039;42.632;23.408;2023-07-02T01:45:40;94289.03;;;19.67;69.35
19761;BME280;10039;42.632;23.408;2023-07-02T01:48:06;94301.94;;;19.83;68.93
19761;BME280;10039;42.632;23.408;2023-07-02T01:50:31;94325.00;;;20.15;68.64
19761;BME280;10039;42.632;23.408;2023-07-02T01:52:57;94314.63;;;20.08;68.96
19761;BME280;10039;42.632;23.408;2023-07-02T01:55:22;94303.88;;;19.77;70.04
19761;BME280;10039;42.632;23.408;2023-07-02T01:57:48;94310.00;;;19.72;70.14
19761;BME280;10039;42.632;23.408;2023-07-02T02:00:13;94320.72;;;19.97;69.93
19761;BME280;10039;42.632;23.408;2023-07-02T02:02:39;94304.78;;;20.16;69.57
19761;BME280;10039;42.632;23.408;2023-07-02T02:05:05;94307.78;;;20.23;70.12
19761;BME280;10039;42.632;23.408;2023-07-02T02:07:30;94303.34;;;20.26;70.48
19761;BME280;10039;42.632;23.408;2023-07-02T02:09:56;94307.59;;;19.85;73.59
19761;BME280;10039;42.632;23.408;2023-07-02T02:12:21;94294.78;;;19.85;72.87
19761;BME280;10039;42.632;23.408;2023-07-02T02:14:46;94317.59;;;20.15;73.07
19761;BME280;10039;42.632;23.408;2023-07-02T02:17:12;94327.00;;;20.31;73.09
19761;BME280;10039;42.632;23.408;2023-07-02T02:19:39;94336.91;;;20.44;72.88
19761;BME280;10039;42.632;23.408;2023-07-02T02:22:05;94313.44;;;20.31;72.58
19761;BME280;10039;42.632;23.408;2023-07-02T02:24:30;94331.97;;;20.37;73.79
19761;BME280;10039;42.632;23.408;2023-07-02T02:26:55;94287.81;;;20.21;73.56
19761;BME280;10039;42.632;23.408;2023-07-02T02:29:21;94315.66;;;20.27;76.17
19761;BME280;10039;42.632;23.408;2023-07-02T02:31:46;94294.53;;;19.83;77.59
19761;BME280;10039;42.632;23.408;2023-07-02T02:34:12;94313.31;;;19.98;77.10
19761;BME280;10039;42.632;23.408;2023-07-02T02:36:37;94315.34;;;20.03;75.79
19761;BME280;10039;42.632;23.408;2023-07-02T02:39:02;94328.16;;;20.08;76.87
19761;BME280;10039;42.632;23.408;2023-07-02T02:41:28;94302.16;;;19.79;78.79
19761;BME280;10039;42.632;23.408;2023-07-02T02:43:53;94307.81;;;19.81;77.37
19761;BME280;10039;42.632;23.408;2023-07-02T02:46:20;94294.09;;;19.96;76.36
19761;BME280;10039;42.632;23.408;2023-07-02T02:48:47;94312.78;;;19.88;78.22
19761;BME280;10039;42.632;23.408;2023-07-02T02:51:12;94309.59;;;19.90;77.45
19761;BME280;10039;42.632;23.408;2023-07-02T02:53:38;94312.06;;;19.88;77.16
19761;BME280;10039;42.632;23.408;2023-07-02T02:56:03;94296.59;;;19.52;78.40
19761;BME280;10039;42.632;23.408;2023-07-02T02:58:29;94269.81;;;19.59;78.37
19761;BME280;10039;42.632;23.408;2023-07-02T03:00:55;94253.06;;;19.55;77.75
19761;BME280;10039;42.632;23.408;2023-07-02T03:03:21;94300.72;;;19.95;77.71
19761;BME280;10039;42.632;23.408;2023-07-02T03:05:47;94294.16;;;20.07;77.01
19761;BME280;10039;42.632;23.408;2023-07-02T03:08:14;94307.72;;;20.07;77.38
19761;BME280;10039;42.632;23.408;2023-07-02T03:10:39;94310.44;;;20.07;77.09
19761;BME280;10039;42.632;23.408;2023-07-02T03:13:05;94280.34;;;19.99;75.95
19761;BME280;10039;42.632;23.408;2023-07-02T03:15:30;94309.22;;;20.13;76.33
19761;BME280;10039;42.632;23.408;2023-07-02T03:17:56;94273.47;;;20.04;76.01
19761;BME280;10039;42.632;23.408;2023-07-02T03:20:22;94272.75;;;20.09;76.80
19761;BME280;10039;42.632;23.408;2023-07-02T03:22:47;94279.75;;;19.73;78.52
19761;BME280;10039;42.632;23.408;2023-07-02T03:25:13;94311.78;;;19.86;78.95
19761;BME280;10039;42.632;23.408;2023-07-02T03:27:38;94266.47;;;19.81;78.10
19761;BME280;10039;42.632;23.408;2023-07-02T03:30:04;94288.91;;;19.87;78.60
19761;BME280;10039;42.632;23.408;2023-07-02T03:32:30;94310.34;;;19.96;78.00
19761;BME280;10039;42.632;23.408;2023-07-02T03:34:56;94301.94;;;19.88;77.70
19761;BME280;10039;42.632;23.408;2023-07-02T03:37:21;94313.41;;;20.14;77.08
19761;BME280;10039;42.632;23.408;2023-07-02T03:39:46;94325.19;;;20.06;77.78
19761;BME280;10039;42.632;23.408;2023-07-02T03:42:12;94296.28;;;19.86;77.57
19761;BME280;10039;42.632;23.408;2023-07-02T03:44:37;94328.63;;;20.01;77.30
19761;BME280;10039;42.632;23.408;2023-07-02T03:47:03;94321.78;;;20.11;76.88
19761;BME280;10039;42.632;23.408;2023-07-02T03:49:28;94308.19;;;20.00;77.11
19761;BME280;10039;42.632;23.408;2023-07-02T03:51:54;94315.13;;;20.17;76.85
19761;BME280;10039;42.632;23.408;2023-07-02T03:54:20;94282.31;;;19.99;76.43
19761;BME280;10039;42.632;23.408;2023-07-02T03:56:45;94303.00;;;20.02;76.07
19761;BME280;10039;42.632;23.408;2023-07-02T03:59:10;94334.38;;;20.25;76.60
19761;BME280;10039;42.632;23.408;2023-07-02T04:01:36;94330.94;;;20.30;77.09
19761;BME280;10039;42.632;23.408;2023-07-02T04:04:02;94314.88;;;20.10;76.55
19761;BME280;10039;42.632;23.408;2023-07-02T04:06:27;94320.75;;;20.03;76.32
19761;BME280;10039;42.632;23.408;2023-07-02T04:08:52;94341.78;;;20.19;76.39
19761;BME280;10039;42.632;23.408;2023-07-02T04:11:18;94288.38;;;19.83;77.44
19761;BME280;10039;42.632;23.408;2023-07-02T04:13:43;94330.41;;;20.15;77.03
19761;BME280;10039;42.632;23.408;2023-07-02T04:16:09;94323.31;;;20.23;76.53
19761;BME280;10039;42.632;23.408;2023-07-02T04:18:34;94341.00;;;20.13;77.71
19761;BME280;10039;42.632;23.408;2023-07-02T04:21:01;94349.75;;;19.97;78.53
19761;BME280;10039;42.632;23.408;2023-07-02T04:23:26;94348.53;;;19.98;78.86
19761;BME280;10039;42.632;23.408;2023-07-02T04:25:52;94353.53;;;20.05;78.31
19761;BME280;10039;42.632;23.408;2023-07-02T04:28:17;94355.53;;;20.10;77.14
19761;BME280;10039;42.632;23.408;2023-07-02T04:30:44;94342.84;;;19.96;77.83
19761;BME280;10039;42.632;23.408;2023-07-02T04:33:09;94353.34;;;20.25;76.99
19761;BME280;10039;42.632;23.408;2023-07-02T04:35:39;94356.34;;;20.32;76.32
19761;BME280;10039;42.632;23.408;2023-07-02T04:38:05;94346.94;;;20.22;75.85
19761;BME280;10039;42.632;23.408;2023-07-02T04:40:31;94360.06;;;20.40;76.30
19761;BME280;10039;42.632;23.408;2023-07-02T04:42:56;94385.25;;;20.51;75.58
19761;BME280;10039;42.632;23.408;2023-07-02T04:45:26;94390.91;;;20.48;75.56
19761;BME280;10039;42.632;23.408;2023-07-02T04:47:51;94384.50;;;20.51;75.31
19761;BME280;10039;42.632;23.408;2023-07-02T04:50:18;94381.81;;;20.56;75.19
19761;BME280;10039;42.632;23.408;2023-07-02T04:52:43;94398.97;;;20.32;77.03
19761;BME280;10039;42.632;23.408;2023-07-02T04:55:09;94405.66;;;20.36;76.34
19761;BME280;10039;42.632;23.408;2023-07-02T04:57:38;94400.25;;;20.41;75.91
19761;BME280;10039;42.632;23.408;2023-07-02T05:00:06;94369.00;;;19.99;75.81
19761;BME280;10039;42.632;23.408;2023-07-02T05:02:33;94396.69;;;20.14;76.28
19761;BME280;10039;42.632;23.408;2023-07-02T05:04:59;94376.81;;;19.91;76.08
19761;BME280;10039;42.632;23.408;2023-07-02T05:07:24;94391.38;;;19.94;76.32
19761;BME280;10039;42.632;23.408;2023-07-02T05:09:50;94383.50;;;19.96;76.18
19761;BME280;10039;42.632;23.408;2023-07-02T05:12:17;94407.31;;;20.23;76.44
19761;BME280;10039;42.632;23.408;2023-07-02T05:14:43;94384.97;;;19.97;76.17
19761;BME280;10039;42.632;23.408;2023-07-02T05:17:09;94418.41;;;20.25;76.55
19761;BME280;10039;42.632;23.408;2023-07-02T05:19:34;94407.56;;;20.25;76.32
19761;BME280;10039;42.632;23.408;2023-07-02T05:21:59;94377.94;;;20.10;76.36
19761;BME280;10039;42.632;23.408;2023-07-02T05:24:25;94419.69;;;20.34;76.51
19761;BME280;10039;42.632;23.408;2023-07-02T05:26:50;94422.66;;;20.36;76.50
19761;BME280;10039;42.632;23.408;2023-07-02T05:29:16;94420.47;;;20.40;75.74
19761;BME280;10039;42.632;23.408;2023-07-02T05:31:50;94390.81;;;20.21;76.57
19761;BME280;10039;42.632;23.408;2023-07-02T05:34:16;94420.72;;;20.42;76.26
19761;BME280;10039;42.632;23.408;2023-07-02T05:36:41;94389.34;;;20.31;76.40
19761;BME280;10039;42.632;23.408;2023-07-02T05:39:07;94412.59;;;20.42;76.81
19761;BME280;10039;42.632;23.408;2023-07-02T05:41:33;94402.75;;;20.50;76.18
19761;BME280;10039;42.632;23.408;2023-07-02T05:43:58;94404.25;;;20.57;76.27
19761;BME280;10039;42.632;23.408;2023-07-02T05:46:24;94409.94;;;20.64;76.21
19761;BME280;10039;42.632;23.408;2023-07-02T05:48:50;94403.53;;;20.67;76.58
19761;BME280;10039;42.632;23.408;2023-07-02T05:51:46;94404.50;;;20.64;76.62
19761;BME280;10039;42.632;23.408;2023-07-02T05:54:25;94403.00;;;20.52;77.04
19761;BME280;10039;42.632;23.408;2023-07-02T05:56:53;94390.19;;;20.53;76.35
19761;BME280;10039;42.632;23.408;2023-07-02T05:59:19;94393.66;;;20.64;75.90
19761;BME280;10039;42.632;23.408;2023-07-02T06:01:45;94424.00;;;20.74;77.24
19761;BME280;10039;42.632;23.408;2023-07-02T06:04:39;94412.44;;;20.73;77.77
19761;BME280;10039;42.632;23.408;2023-07-02T06:07:05;94395.19;;;20.76;76.20
19761;BME280;10039;42.632;23.408;2023-07-02T06:09:30;94407.56;;;20.88;76.55
19761;BME280;10039;42.632;23.408;2023-07-02T06:11:56;94397.72;;;20.91;76.67
19761;BME280;10039;42.632;23.408;2023-07-02T06:14:22;94403.13;;;20.91;76.76
19761;BME280;10039;42.632;23.408;2023-07-02T06:16:51;94398.97;;;21.06;75.97
19761;BME280;10039;42.632;23.408;2023-07-02T06:19:16;94389.31;;;20.94;76.17
19761;BME280;10039;42.632;23.408;2023-07-02T06:21:42;94398.25;;;21.11;75.70
19761;BME280;10039;42.632;23.408;2023-07-02T06:24:07;94406.91;;;21.32;75.87
19761;BME280;10039;42.632;23.408;2023-07-02T06:26:33;94417.97;;;21.28;74.89
19761;BME280;10039;42.632;23.408;2023-07-02T06:28:58;94391.56;;;21.18;74.69
19761;BME280;10039;42.632;23.408;2023-07-02T06:31:24;94408.09;;;21.25;72.76
19761;BME280;10039;42.632;23.408;2023-07-02T06:33:50;94409.34;;;21.24;73.16
19761;BME280;10039;42.632;23.408;2023-07-02T06:36:16;94399.25;;;21.41;73.06
19761;BME280;10039;42.632;23.408;2023-07-02T06:38:42;94375.53;;;21.31;72.50
19761;BME280;10039;42.632;23.408;2023-07-02T06:41:08;94402.69;;;21.58;72.56
19761;BME280;10039;42.632;23.408;2023-07-02T06:43:34;94378.00;;;21.45;71.21
19761;BME280;10039;42.632;23.408;2023-07-02T06:46:00;94380.22;;;21.52;72.08
19761;BME280;10039;42.632;23.408;2023-07-02T06:48:25;94377.50;;;21.41;71.39
19761;BME280;10039;42.632;23.408;2023-07-02T06:50:50;94393.81;;;21.57;72.14
19761;BME280;10039;42.632;23.408;2023-07-02T06:53:16;94367.88;;;21.56;71.99
19761;BME280;10039;42.632;23.408;2023-07-02T06:55:41;94363.19;;;21.46;71.82
19761;BME280;10039;42.632;23.408;2023-07-02T06:58:07;94374.78;;;21.52;71.41
19761;BME280;10039;42.632;23.408;2023-07-02T07:00:33;94363.44;;;21.64;69.55
19761;BME280;10039;42.632;23.408;2023-07-02T07:03:05;94387.84;;;21.92;69.05
19761;BME280;10039;42.632;23.408;2023-07-02T07:05:31;94374.75;;;21.90;69.62
19761;BME280;10039;42.632;23.408;2023-07-02T07:07:57;94394.19;;;22.27;68.71
19761;BME280;10039;42.632;23.408;2023-07-02T07:10:23;94403.88;;;22.12;66.96
19761;BME280;10039;42.632;23.408;2023-07-02T07:12:49;94408.38;;;21.87;67.89
19761;BME280;10039;42.632;23.408;2023-07-02T07:15:14;94412.03;;;22.01;68.91
19761;BME280;10039;42.632;23.408;2023-07-02T07:17:39;94403.09;;;22.22;68.50
19761;BME280;10039;42.632;23.408;2023-07-02T07:20:05;94397.56;;;22.50;67.61
19761;BME280;10039;42.632;23.408;2023-07-02T07:22:31;94382.81;;;22.18;67.72
19761;BME280;10039;42.632;23.408;2023-07-02T07:24:57;94390.16;;;22.50;67.71
19761;BME280;10039;42.632;23.408;2023-07-02T07:27:22;94407.94;;;22.57;66.20
19761;BME280;10039;42.632;23.408;2023-07-02T07:29:48;94396.59;;;22.47;66.46
19761;BME280;10039;42.632;23.408;2023-07-02T07:32:13;94396.72;;;22.71;66.47
19761;BME280;10039;42.632;23.408;2023-07-02T07:34:39;94366.31;;;22.72;66.04
19761;BME280;10039;42.632;23.408;2023-07-02T07:37:05;94381.31;;;22.90;65.20
19761;BME280;10039;42.632;23.408;2023-07-02T07:39:30;94394.72;;;22.77;65.96
19761;BME280;10039;42.632;23.408;2023-07-02T07:41:56;94385.22;;;22.94;66.17
19761;BME280;10039;42.632;23.408;2023-07-02T07:44:21;94394.22;;;23.24;65.72
19761;BME280;10039;42.632;23.408;2023-07-02T07:46:47;94374.97;;;23.17;64.52
19761;BME280;10039;42.632;23.408;2023-07-02T07:49:13;94383.63;;;23.15;65.92
19761;BME280;10039;42.632;23.408;2023-07-02T07:51:39;94386.34;;;23.15;65.15
19761;BME280;10039;42.632;23.408;2023-07-02T07:54:04;94390.59;;;23.11;65.79
19761;BME280;10039;42.632;23.408;2023-07-02T07:56:30;94391.00;;;23.26;65.95
19761;BME280;10039;42.632;23.408;2023-07-02T07:58:55;94388.78;;;23.54;66.23
19761;BME280;10039;42.632;23.408;2023-07-02T08:01:21;94389.69;;;23.62;64.51
19761;BME280;10039;42.632;23.408;2023-07-02T08:03:46;94387.56;;;23.49;64.73
19761;BME280;10039;42.632;23.408;2023-07-02T08:06:12;94391.00;;;23.85;64.10
19761;BME280;10039;42.632;23.408;2023-07-02T08:08:37;94395.78;;;23.79;61.56
19761;BME280;10039;42.632;23.408;2023-07-02T08:11:03;94372.16;;;23.87;63.21
19761;BME280;10039;42.632;23.408;2023-07-02T08:13:28;94405.59;;;23.87;63.48
19761;BME280;10039;42.632;23.408;2023-07-02T08:15:54;94382.78;;;23.90;62.63
19761;BME280;10039;42.632;23.408;2023-07-02T08:18:20;94405.81;;;23.30;64.02
19761;BME280;10039;42.632;23.408;2023-07-02T08:20:45;94395.03;;;23.49;64.46
19761;BME280;10039;42.632;23.408;2023-07-02T08:23:10;94384.56;;;24.06;63.60
19761;BME280;10039;42.632;23.408;2023-07-02T08:25:37;94392.09;;;24.48;62.07
19761;BME280;10039;42.632;23.408;2023-07-02T08:28:02;94393.00;;;24.74;61.92
19761;BME280;10039;42.632;23.408;2023-07-02T08:30:27;94371.97;;;24.88;60.71
19761;BME280;10039;42.632;23.408;2023-07-02T08:32:53;94381.78;;;24.96;59.83
19761;BME280;10039;42.632;23.408;2023-07-02T08:35:20;94383.25;;;25.15;60.25
19761;BME280;10039;42.632;23.408;2023-07-02T08:37:45;94364.00;;;25.39;57.99
19761;BME280;10039;42.632;23.408;2023-07-02T08:40:20;94386.88;;;25.86;57.25
19761;BME280;10039;42.632;23.408;2023-07-02T08:42:46;94370.25;;;25.84;55.91
19761;BME280;10039;42.632;23.408;2023-07-02T08:45:15;94354.28;;;26.14;55.42
19761;BME280;10039;42.632;23.408;2023-07-02T08:47:43;94373.03;;;26.49;56.03
19761;BME280;10039;42.632;23.408;2023-07-02T08:50:09;94373.53;;;26.60;55.99
19761;BME280;10039;42.632;23.408;2023-07-02T08:52:35;94373.31;;;26.71;55.07
19761;BME280;10039;42.632;23.408;2023-07-02T08:55:00;94383.31;;;26.82;54.63
19761;BME280;10039;42.632;23.408;2023-07-02T08:57:25;94357.66;;;26.46;52.04
19761;BME280;10039;42.632;23.408;2023-07-02T08:59:51;94341.09;;;26.51;52.56
19761;BME280;10039;42.632;23.408;2023-07-02T09:02:17;94363.22;;;27.00;53.65
19761;BME280;10039;42.632;23.408;2023-07-02T09:04:42;94379.03;;;26.94;52.84
19761;BME280;10039;42.632;23.408;2023-07-02T09:07:11;94365.66;;;26.44;52.74
19761;BME280;10039;42.632;23.408;2023-07-02T09:09:48;94368.28;;;26.62;53.40
19761;BME280;10039;42.632;23.408;2023-07-02T09:12:27;94362.81;;;27.09;52.74
19761;BME280;10039;42.632;23.408;2023-07-02T09:14:57;94362.84;;;27.49;53.50
19761;BME280;10039;42.632;23.408;2023-07-02T09:17:30;94353.25;;;27.43;52.98
19761;BME280;10039;42.632;23.408;2023-07-02T09:19:58;94351.94;;;27.98;52.40
19761;BME280;10039;42.632;23.408;2023-07-02T09:22:26;94331.22;;;27.48;52.85
19761;BME280;10039;42.632;23.408;2023-07-02T09:24:56;94348.88;;;27.40;52.83
19761;BME280;10039;42.632;23.408;2023-07-02T09:27:38;94346.19;;;27.47;52.62
19761;BME280;10039;42.632;23.408;2023-07-02T09:32:33;94346.38;;;27.09;54.43
19761;BME280;10039;42.632;23.408;2023-07-02T09:35:02;94324.72;;;27.79;53.67
19761;BME280;10039;42.632;23.408;2023-07-02T09:37:27;94355.31;;;28.11;52.20
19761;BME280;10039;42.632;23.408;2023-07-02T09:39:54;94326.41;;;28.18;51.46
19761;BME280;10039;42.632;23.408;2023-07-02T09:42:21;94326.28;;;28.58;50.95
19761;BME280;10039;42.632;23.408;2023-07-02T09:44:47;94348.38;;;28.46;51.75
19761;BME280;10039;42.632;23.408;2023-07-02T09:47:17;94354.00;;;28.33;49.89
19761;BME280;10039;42.632;23.408;2023-07-02T09:49:59;94345.19;;;28.69;50.58
19761;BME280;10039;42.632;23.408;2023-07-02T09:52:27;94336.56;;;28.02;50.73
19761;BME280;10039;42.632;23.408;2023-07-02T09:54:53;94349.69;;;27.96;51.01
19761;BME280;10039;42.632;23.408;2023-07-02T09:57:19;94331.38;;;27.91;51.61
19761;BME280;10039;42.632;23.408;2023-07-02T09:59:44;94347.66;;;28.45;50.75
19761;BME280;10039;42.632;23.408;2023-07-02T10:02:10;94340.34;;;28.48;50.51
19761;BME280;10039;42.632;23.408;2023-07-02T10:04:42;94317.09;;;28.49;50.33
19761;BME280;10039;42.632;23.408;2023-07-02T10:07:08;94327.81;;;28.74;50.54
19761;BME280;10039;42.632;23.408;2023-07-02T10:12:00;94340.56;;;29.00;48.97
19761;BME280;10039;42.632;23.408;2023-07-02T10:14:26;94326.75;;;29.43;49.09
19761;BME280;10039;42.632;23.408;2023-07-02T10:16:55;94328.34;;;29.31;48.60
19761;BME280;10039;42.632;23.408;2023-07-02T10:19:21;94317.50;;;29.18;49.00
19761;BME280;10039;42.632;23.408;2023-07-02T10:22:03;94290.44;;;28.71;49.09
19761;BME280;10039;42.632;23.408;2023-07-02T10:24:28;94313.47;;;29.11;49.03
19761;BME280;10039;42.632;23.408;2023-07-02T10:26:55;94312.69;;;28.96;48.37
19761;BME280;10039;42.632;23.408;2023-07-02T10:29:26;94305.75;;;29.02;49.42
19761;BME280;10039;42.632;23.408;2023-07-02T10:31:55;94302.78;;;28.93;49.49
19761;BME280;10039;42.632;23.408;2023-07-02T10:34:32;94299.00;;;29.18;49.62
19761;BME280;10039;42.632;23.408;2023-07-02T10:36:57;94275.91;;;29.29;48.80
19761;BME280;10039;42.632;23.408;2023-07-02T10:39:24;94296.47;;;30.02;48.02
19761;BME280;10039;42.632;23.408;2023-07-02T10:41:49;94296.97;;;30.23;46.30
19761;BME280;10039;42.632;23.408;2023-07-02T10:44:15;94281.34;;;30.33;46.31
19761;BME280;10039;42.632;23.408;2023-07-02T10:46:48;94273.16;;;30.65;45.57
19761;BME280;10039;42.632;23.408;2023-07-02T10:49:16;94294.28;;;30.08;45.39
19761;BME280;10039;42.632;23.408;2023-07-02T10:51:42;94298.19;;;30.52;44.77
19761;BME280;10039;42.632;23.408;2023-07-02T10:54:07;94294.72;;;30.91;45.16
19761;BME280;10039;42.632;23.408;2023-07-02T10:56:34;94293.38;;;30.60;43.87
19761;BME280;10039;42.632;23.408;2023-07-02T10:59:00;94283.34;;;31.19;42.71
19761;BME280;10039;42.632;23.408;2023-07-02T11:01:27;94291.34;;;31.07;41.87
19761;BME280;10039;42.632;23.408;2023-07-02T11:03:59;94271.28;;;30.68;42.00
19761;BME280;10039;42.632;23.408;2023-07-02T11:06:26;94285.66;;;30.66;42.42
19761;BME280;10039;42.632;23.408;2023-07-02T11:08:52;94254.63;;;30.51;41.57
19761;BME280;10039;42.632;23.408;2023-07-02T11:11:20;94281.78;;;30.62;42.50
19761;BME280;10039;42.632;23.408;2023-07-02T11:13:47;94260.75;;;31.13;42.09
19761;BME280;10039;42.632;23.408;2023-07-02T11:16:26;94274.22;;;31.58;40.92
19761;BME280;10039;42.632;23.408;2023-07-02T11:18:55;94272.53;;;32.04;40.85
19761;BME280;10039;42.632;23.408;2023-07-02T11:21:30;94269.97;;;32.39;41.17
19761;BME280;10039;42.632;23.408;2023-07-02T11:24:03;94283.13;;;32.48;39.38
19761;BME280;10039;42.632;23.408;2023-07-02T11:26:39;94240.47;;;32.42;39.32
19761;BME280;10039;42.632;23.408;2023-07-02T11:29:10;94262.63;;;32.68;38.60
19761;BME280;10039;42.632;23.408;2023-07-02T11:31:36;94234.03;;;32.39;39.13
19761;BME280;10039;42.632;23.408;2023-07-02T11:34:05;94267.16;;;32.90;39.23
19761;BME280;10039;42.632;23.408;2023-07-02T11:36:36;94254.41;;;33.31;39.00
19761;BME280;10039;42.632;23.408;2023-07-02T11:39:01;94262.09;;;32.96;37.81
19761;BME280;10039;42.632;23.408;2023-07-02T11:41:36;94254.09;;;33.27;40.12
19761;BME280;10039;42.632;23.408;2023-07-02T11:44:02;94243.50;;;33.68;40.06
19761;BME280;10039;42.632;23.408;2023-07-02T11:46:27;94236.28;;;33.56;38.21
19761;BME280;10039;42.632;23.408;2023-07-02T11:48:53;94255.59;;;33.73;38.34
19761;BME280;10039;42.632;23.408;2023-07-02T11:51:18;94254.94;;;33.20;37.65
19761;BME280;10039;42.632;23.408;2023-07-02T11:53:43;94265.00;;;32.98;37.37
19761;BME280;10039;42.632;23.408;2023-07-02T11:56:09;94277.16;;;31.84;39.81
19761;BME280;10039;42.632;23.408;2023-07-02T11:58:35;94254.56;;;31.05;41.87
19761;BME280;10039;42.632;23.408;2023-07-02T12:01:00;94286.63;;;31.25;42.06
19761;BME280;10039;42.632;23.408;2023-07-02T12:03:26;94285.91;;;30.85;42.81
19761;BME280;10039;42.632;23.408;2023-07-02T12:05:51;94283.13;;;30.53;42.87
19761;BME280;10039;42.632;23.408;2023-07-02T12:08:17;94277.00;;;29.85;43.75
19761;BME280;10039;42.632;23.408;2023-07-02T12:10:42;94273.72;;;29.50;45.03
19761;BME280;10039;42.632;23.408;2023-07-02T12:13:07;94273.00;;;29.57;44.98
19761;BME280;10039;42.632;23.408;2023-07-02T12:15:33;94289.53;;;29.49;45.05
19761;BME280;10039;42.632;23.408;2023-07-02T12:17:58;94286.78;;;29.49;45.58
19761;BME280;10039;42.632;23.408;2023-07-02T12:20:24;94289.13;;;29.75;45.84
19761;BME280;10039;42.632;23.408;2023-07-02T12:22:49;94291.31;;;29.91;43.99
19761;BME280;10039;42.632;23.408;2023-07-02T12:25:14;94276.28;;;29.70;43.70
19761;BME280;10039;42.632;23.408;2023-07-02T12:27:40;94302.34;;;29.91;44.12
19761;BME280;10039;42.632;23.408;2023-07-02T12:30:06;94285.81;;;29.99;43.68
19761;BME280;10039;42.632;23.408;2023-07-02T12:32:33;94277.34;;;29.97;42.98
19761;BME280;10039;42.632;23.408;2023-07-02T12:34:59;94262.31;;;29.98;42.98
19761;BME280;10039;42.632;23.408;2023-07-02T12:37:24;94295.66;;;30.39;43.56
19761;BME280;10039;42.632;23.408;2023-07-02T12:39:50;94301.84;;;30.47;42.63
19761;BME280;10039;42.632;23.408;2023-07-02T12:42:16;94277.66;;;30.31;43.12
19761;BME280;10039;42.632;23.408;2023-07-02T12:44:41;94300.81;;;30.35;43.23
19761;BME280;10039;42.632;23.408;2023-07-02T12:47:07;94273.34;;;30.05;43.31
19761;BME280;10039;42.632;23.408;2023-07-02T12:49:33;94290.41;;;29.96;43.77
19761;BME280;10039;42.632;23.408;2023-07-02T12:51:59;94277.78;;;29.56;44.50
19761;BME280;10039;42.632;23.408;2023-07-02T12:54:24;94288.38;;;29.22;45.44
19761;BME280;10039;42.632;23.408;2023-07-02T12:56:50;94291.66;;;29.21;46.43
19761;BME280;10039;42.632;23.408;2023-07-02T12:59:16;94305.22;;;29.19;46.41